createdAt,value
2024-02-19T00:00:13.974Z,78.90
2024-02-19T00:02:45.007Z,78.60
2024-02-19T00:05:14.085Z,78.30
2024-02-19T00:07:42.886Z,77.90
2024-02-19T00:10:11.818Z,77.30
2024-02-19T00:12:40.657Z,77.20
2024-02-19T00:15:10.385Z,77.20
2024-02-19T00:17:39.168Z,77.20
2024-02-19T00:20:10.772Z,76.60
2024-02-19T00:22:40.576Z,76.20
2024-02-19T00:25:09.931Z,75.40
2024-02-19T00:27:38.651Z,75.60
2024-02-19T00:30:08.260Z,75.40
2024-02-19T00:32:37.038Z,75.50
2024-02-19T00:35:06.477Z,75.60
2024-02-19T00:37:36.628Z,75.10
2024-02-19T00:40:05.961Z,75.30
2024-02-19T00:42:34.674Z,74.90
2024-02-19T00:45:03.448Z,74.90
2024-02-19T00:47:32.137Z,75.10
2024-02-19T00:50:01.219Z,74.80
2024-02-19T00:52:30.072Z,74.60
2024-02-19T00:55:00.167Z,73.60
2024-02-19T00:57:28.830Z,73.70
2024-02-19T00:59:57.562Z,73.30
2024-02-19T01:02:26.474Z,73.40
2024-02-19T01:04:55.664Z,73.60
2024-02-19T01:07:24.491Z,74.00
2024-02-19T01:09:53.385Z,74.10
2024-02-19T01:12:23.591Z,73.80
2024-02-19T01:14:52.380Z,73.10
2024-02-19T01:17:21.276Z,72.60
2024-02-19T01:19:50.074Z,72.50
2024-02-19T01:22:19.219Z,72.00
2024-02-19T01:24:48.018Z,71.70
2024-02-19T01:27:16.668Z,72.00
2024-02-19T01:29:46.902Z,72.10
2024-02-19T01:32:15.489Z,72.20
2024-02-19T01:34:44.440Z,72.50
2024-02-19T01:37:13.314Z,71.90
2024-02-19T01:39:42.109Z,71.70
2024-02-19T01:42:10.816Z,71.90
2024-02-19T01:44:40.394Z,71.90
2024-02-19T01:47:12.391Z,71.60
2024-02-19T01:49:41.371Z,71.70
2024-02-19T01:52:10.704Z,71.60
2024-02-19T01:54:40.445Z,71.40
2024-02-19T01:57:10.399Z,71.70
2024-02-19T01:59:40.404Z,72.00
2024-02-19T02:02:12.170Z,72.00
2024-02-19T02:04:40.983Z,71.60
2024-02-19T02:07:11.003Z,71.60
2024-02-19T02:09:40.020Z,71.60
2024-02-19T02:12:08.994Z,71.70
2024-02-19T02:14:37.692Z,71.30
2024-02-19T02:17:08.837Z,70.70
2024-02-19T02:19:42.758Z,71.00
2024-02-19T02:22:12.890Z,71.10
2024-02-19T02:24:41.662Z,71.10
2024-02-19T02:27:11.829Z,70.20
2024-02-19T02:29:41.016Z,70.70
2024-02-19T02:32:09.888Z,70.70
2024-02-19T02:34:38.734Z,70.60
2024-02-19T02:37:10.853Z,70.70
2024-02-19T02:39:41.030Z,70.60
2024-02-19T02:42:11.436Z,70.70
2024-02-19T02:44:40.050Z,70.20
2024-02-19T02:47:08.649Z,70.40
2024-02-19T02:49:37.387Z,70.00
2024-02-19T02:52:06.512Z,69.80
2024-02-19T02:54:35.626Z,69.70
2024-02-19T02:57:04.191Z,69.80
2024-02-19T02:59:34.437Z,69.60
2024-02-19T03:02:03.271Z,69.00
2024-02-19T03:04:33.374Z,69.00
2024-02-19T03:07:02.466Z,69.30
2024-02-19T03:09:31.222Z,68.40
2024-02-19T03:12:00.014Z,69.00
2024-02-19T03:14:28.805Z,69.00
2024-02-19T03:16:58.779Z,69.00
2024-02-19T03:19:28.077Z,68.40
2024-02-19T03:21:58.203Z,67.70
2024-02-19T03:24:26.849Z,67.50
2024-02-19T03:26:58.840Z,67.80
2024-02-19T03:29:27.730Z,68.10
2024-02-19T03:31:57.936Z,68.20
2024-02-19T03:34:26.942Z,68.10
2024-02-19T03:36:58.583Z,68.30
2024-02-19T03:39:27.387Z,68.30
2024-02-19T03:41:56.512Z,68.50
2024-02-19T03:44:25.179Z,68.60
2024-02-19T03:46:53.900Z,68.50
2024-02-19T03:49:23.971Z,68.70
2024-02-19T03:51:52.720Z,68.50
2024-02-19T03:54:21.429Z,69.40
2024-02-19T03:56:52.364Z,68.70
2024-02-19T03:59:21.012Z,68.60
2024-02-19T04:01:50.532Z,68.70
2024-02-19T04:04:20.323Z,68.30
2024-02-19T04:06:51.737Z,68.00
2024-02-19T04:09:20.440Z,68.20
2024-02-19T04:11:49.250Z,68.40
2024-02-19T04:14:17.890Z,68.40
2024-02-19T04:16:46.607Z,68.40
2024-02-19T04:19:18.240Z,68.10
2024-02-19T04:21:47.570Z,67.70
2024-02-19T04:24:17.937Z,68.00
2024-02-19T04:26:46.654Z,68.20
2024-02-19T04:29:15.329Z,68.20
2024-02-19T04:31:44.378Z,68.40
2024-02-19T04:34:13.143Z,68.50
2024-02-19T04:36:41.986Z,68.10
2024-02-19T04:39:12.053Z,68.20
2024-02-19T04:41:42.100Z,68.60
2024-02-19T04:44:10.819Z,68.60
2024-02-19T04:46:39.971Z,68.60
2024-02-19T04:49:08.834Z,68.40
2024-02-19T04:51:37.637Z,68.70
2024-02-19T04:54:06.149Z,68.80
2024-02-19T04:56:34.843Z,68.40
2024-02-19T04:59:05.115Z,68.10
2024-02-19T05:01:34.111Z,68.30
2024-02-19T05:04:03.217Z,68.30
2024-02-19T05:06:31.989Z,68.20
2024-02-19T05:09:00.758Z,68.30
2024-02-19T05:11:29.339Z,68.00
2024-02-19T05:13:58.091Z,68.10
2024-02-19T05:16:28.683Z,68.20
2024-02-19T05:18:57.683Z,68.40
2024-02-19T05:21:26.527Z,68.60
2024-02-19T05:23:55.275Z,68.60
2024-02-19T05:26:28.547Z,68.30
2024-02-19T05:28:57.410Z,68.70
2024-02-19T05:31:36.059Z,68.60
2024-02-19T05:34:05.928Z,68.70
2024-02-19T05:36:34.931Z,68.70
2024-02-19T05:39:04.077Z,69.40
2024-02-19T05:41:32.675Z,68.60
2024-02-19T05:44:01.360Z,68.60
2024-02-19T05:46:31.098Z,68.70
2024-02-19T05:49:01.313Z,68.80
2024-02-19T05:51:45.838Z,69.00
2024-02-19T05:54:14.559Z,69.00
2024-02-19T05:56:43.848Z,69.00
2024-02-19T05:59:12.651Z,69.10
2024-02-19T06:01:41.363Z,69.10
2024-02-19T06:04:12.052Z,69.30
2024-02-19T06:06:41.430Z,69.30
2024-02-19T06:09:10.080Z,69.10
2024-02-19T06:11:45.515Z,68.70
2024-02-19T06:14:14.302Z,68.80
2024-02-19T06:16:42.940Z,68.60
2024-02-19T06:19:15.374Z,68.40
2024-02-19T06:21:44.380Z,68.80
2024-02-19T06:24:13.086Z,68.70
2024-02-19T06:26:41.827Z,68.40
2024-02-19T06:29:12.425Z,68.50
2024-02-19T06:31:45.810Z,68.10
2024-02-19T06:34:16.405Z,67.80
2024-02-19T06:36:45.620Z,68.00
2024-02-19T06:39:14.305Z,67.90
2024-02-19T06:41:45.548Z,67.90
2024-02-19T06:44:14.401Z,68.20
2024-02-19T06:46:43.258Z,68.30
2024-02-19T06:49:12.332Z,68.00
2024-02-19T06:51:42.995Z,67.80
2024-02-19T06:54:12.112Z,67.80
2024-02-19T06:56:40.900Z,67.30
2024-02-19T06:59:09.788Z,67.40
2024-02-19T07:01:40.367Z,67.50
2024-02-19T07:04:09.501Z,67.20
2024-02-19T07:06:38.610Z,67.40
2024-02-19T07:09:08.877Z,67.50
2024-02-19T07:11:39.748Z,67.60
2024-02-19T07:14:09.015Z,67.30
2024-02-19T07:16:37.859Z,66.50
2024-02-19T07:19:06.885Z,66.60
2024-02-19T07:21:35.723Z,66.80
2024-02-19T07:24:04.439Z,66.60
2024-02-19T07:29:16.339Z,66.40
2024-02-19T07:31:45.017Z,66.70
2024-02-19T07:34:13.796Z,66.80
2024-02-19T07:36:42.488Z,67.00
2024-02-19T07:39:11.914Z,67.10
2024-02-19T07:41:40.884Z,67.70
2024-02-19T07:44:09.757Z,67.10
2024-02-19T07:46:40.493Z,67.30
2024-02-19T07:49:09.426Z,67.90
2024-02-19T07:51:38.458Z,66.70
2024-02-19T07:54:07.336Z,65.90
2024-02-19T07:56:36.957Z,65.60
2024-02-19T07:59:05.616Z,65.80
2024-02-19T08:01:34.353Z,65.40
2024-02-19T08:04:04.739Z,65.60
2024-02-19T08:06:33.460Z,65.90
2024-02-19T08:09:04.504Z,66.00
2024-02-19T08:11:33.179Z,66.10
2024-02-19T08:14:02.127Z,65.60
2024-02-19T08:16:31.153Z,65.50
2024-02-19T08:19:00.655Z,65.50
2024-02-19T08:21:31.443Z,65.50
2024-02-19T08:24:00.067Z,65.10
2024-02-19T08:26:28.950Z,65.30
2024-02-19T08:28:57.884Z,65.00
2024-02-19T08:31:28.875Z,65.50
2024-02-19T08:33:58.086Z,65.60
2024-02-19T08:36:27.188Z,64.60
2024-02-19T08:38:58.321Z,65.00
2024-02-19T08:41:26.133Z,63.50
2024-02-19T08:43:54.840Z,64.10
2024-02-19T08:46:23.569Z,64.40
2024-02-19T08:48:55.429Z,64.20
2024-02-19T08:51:25.168Z,65.20
2024-02-19T08:53:59.332Z,64.20
2024-02-19T08:56:30.350Z,63.70
2024-02-19T08:58:59.196Z,63.20
2024-02-19T09:01:31.118Z,63.20
2024-02-19T09:04:00.341Z,63.30
2024-02-19T09:06:29.366Z,63.40
2024-02-19T09:08:59.184Z,63.60
2024-02-19T09:11:29.561Z,63.90
2024-02-19T09:13:58.222Z,63.30
2024-02-19T09:16:27.427Z,62.90
2024-02-19T09:18:56.289Z,63.30
2024-02-19T09:21:25.477Z,62.90
2024-02-19T09:23:54.667Z,63.00
2024-02-19T09:26:23.647Z,63.30
2024-02-19T09:28:53.937Z,62.70
2024-02-19T09:31:25.029Z,62.70
2024-02-19T09:33:54.724Z,62.70
2024-02-19T09:36:23.472Z,61.80
2024-02-19T09:38:52.401Z,61.40
2024-02-19T09:41:21.204Z,61.20
2024-02-19T09:43:50.349Z,61.30
2024-02-19T09:46:24.086Z,61.20
2024-02-19T09:48:56.424Z,61.10
2024-02-19T09:51:33.304Z,60.90
2024-02-19T09:54:07.260Z,60.50
2024-02-19T09:56:36.522Z,59.90
2024-02-19T09:59:07.201Z,58.80
2024-02-19T10:01:37.623Z,59.40
2024-02-19T10:04:09.476Z,59.50
2024-02-19T10:06:38.979Z,59.50
2024-02-19T10:09:09.263Z,59.30
2024-02-19T10:11:38.201Z,59.50
2024-02-19T10:14:07.306Z,59.90
2024-02-19T10:16:37.427Z,58.90
2024-02-19T10:19:06.874Z,58.10
2024-02-19T10:21:35.825Z,58.10
2024-02-19T10:24:04.704Z,58.20
2024-02-19T10:26:33.385Z,57.40
2024-02-19T10:29:02.149Z,57.80
2024-02-19T10:31:32.608Z,58.20
2024-02-19T10:34:02.920Z,58.10
2024-02-19T10:36:32.333Z,58.00
2024-02-19T10:39:01.365Z,56.90
2024-02-19T10:41:30.389Z,57.60
2024-02-19T10:43:59.135Z,57.90
2024-02-19T10:46:28.044Z,58.00
2024-02-19T10:48:57.771Z,58.00
2024-02-19T10:51:28.242Z,57.70
2024-02-19T10:54:07.603Z,57.30
2024-02-19T10:56:38.845Z,57.50
2024-02-19T10:59:10.178Z,56.00
2024-02-19T11:01:44.746Z,56.30
2024-02-19T11:04:25.197Z,56.80
2024-02-19T11:06:57.368Z,56.70
2024-02-19T11:09:29.538Z,56.10
2024-02-19T11:12:01.043Z,56.70
2024-02-19T11:14:32.293Z,56.80
2024-02-19T11:17:03.036Z,57.20
2024-02-19T11:19:39.014Z,57.10
2024-02-19T11:22:11.571Z,56.70
2024-02-19T11:24:42.744Z,56.80
2024-02-19T11:27:11.674Z,57.10
2024-02-19T11:29:47.432Z,57.50
2024-02-19T11:32:21.596Z,57.00
2024-02-19T11:34:52.750Z,56.50
2024-02-19T11:37:23.444Z,56.80
2024-02-19T11:39:52.152Z,56.80
2024-02-19T11:42:20.954Z,56.90
2024-02-19T11:44:50.094Z,56.90
2024-02-19T11:47:19.097Z,56.40
2024-02-19T11:49:49.186Z,56.10
2024-02-19T11:52:18.302Z,56.40
2024-02-19T11:54:55.849Z,56.30
2024-02-19T11:57:27.878Z,55.40
2024-02-19T11:59:57.527Z,55.80
2024-02-19T12:02:26.415Z,55.50
2024-02-19T12:04:55.184Z,55.70
2024-02-19T12:07:24.296Z,55.20
2024-02-19T12:09:54.763Z,54.60
2024-02-19T12:12:23.673Z,55.70
2024-02-19T12:14:53.190Z,55.20
2024-02-19T12:17:24.269Z,55.40
2024-02-19T12:19:56.966Z,55.40
2024-02-19T12:22:26.485Z,55.20
2024-02-19T12:24:56.623Z,55.60
2024-02-19T12:27:25.529Z,54.80
2024-02-19T12:29:54.211Z,53.20
2024-02-19T12:32:23.274Z,53.90
2024-02-19T12:34:52.534Z,53.70
2024-02-19T12:37:21.310Z,53.60
2024-02-19T12:39:50.028Z,53.60
2024-02-19T12:42:20.304Z,53.60
2024-02-19T12:44:49.283Z,53.50
2024-02-19T12:47:17.996Z,53.80
2024-02-19T12:49:46.905Z,54.00
2024-02-19T12:52:15.709Z,54.00
2024-02-19T12:54:48.506Z,53.20
2024-02-19T12:57:17.306Z,53.60
2024-02-19T12:59:47.652Z,53.90
2024-02-19T13:02:17.599Z,54.10
2024-02-19T13:04:46.465Z,54.20
2024-02-19T13:07:16.673Z,54.00
2024-02-19T13:09:45.970Z,54.00
2024-02-19T13:12:15.356Z,54.40
2024-02-19T13:14:44.878Z,54.40
2024-02-19T13:17:22.880Z,54.40
2024-02-19T13:19:54.756Z,52.80
2024-02-19T13:22:23.752Z,53.00
2024-02-19T13:24:52.604Z,52.60
2024-02-19T13:27:22.377Z,52.80
2024-02-19T13:29:51.257Z,52.10
2024-02-19T13:32:21.565Z,52.40
2024-02-19T13:34:50.216Z,52.20
2024-02-19T13:37:19.624Z,52.50
2024-02-19T13:39:48.615Z,52.20
2024-02-19T13:42:17.440Z,50.50
2024-02-19T13:44:46.258Z,50.10
2024-02-19T13:47:15.089Z,49.50
2024-02-19T13:49:46.960Z,48.40
2024-02-19T13:52:15.741Z,48.10
2024-02-19T13:54:46.403Z,47.20
2024-02-19T13:57:15.287Z,45.30
2024-02-19T13:59:44.089Z,44.00
2024-02-19T14:02:12.808Z,42.00
2024-02-19T14:04:41.675Z,41.60
2024-02-19T14:07:12.319Z,39.80
2024-02-19T14:09:42.865Z,39.20
2024-02-19T14:12:11.956Z,40.00
2024-02-19T14:14:40.656Z,39.40
2024-02-19T14:17:13.109Z,37.70
2024-02-19T14:19:42.011Z,35.80
2024-02-19T14:22:12.413Z,36.30
2024-02-19T14:24:41.944Z,36.90
2024-02-19T14:27:10.906Z,37.90
2024-02-19T14:29:40.106Z,38.70
2024-02-19T14:32:10.368Z,39.50
2024-02-19T14:34:40.038Z,39.10
2024-02-19T14:37:09.016Z,39.70
2024-02-19T14:39:40.113Z,40.60
2024-02-19T14:42:09.092Z,41.30
2024-02-19T14:44:37.919Z,41.60
2024-02-19T14:47:07.520Z,42.20
2024-02-19T14:49:37.050Z,42.80
2024-02-19T14:52:06.774Z,43.30
2024-02-19T14:54:35.434Z,43.90
2024-02-19T14:57:05.944Z,44.20
2024-02-19T14:59:36.433Z,44.60
2024-02-19T15:02:05.411Z,45.00
2024-02-19T15:04:34.420Z,45.20
2024-02-19T15:07:03.427Z,45.70
2024-02-19T15:09:32.156Z,46.00
2024-02-19T15:12:00.913Z,46.40
2024-02-19T15:14:31.096Z,46.70
2024-02-19T15:16:59.661Z,47.00
2024-02-19T15:19:28.596Z,47.30
2024-02-19T15:21:57.328Z,47.60
2024-02-19T15:24:27.198Z,47.90
2024-02-19T15:26:56.081Z,48.50
2024-02-19T15:29:25.906Z,48.80
2024-02-19T15:31:55.984Z,49.00
2024-02-19T15:34:24.783Z,49.30
2024-02-19T15:36:53.362Z,49.60
2024-02-19T15:39:21.866Z,50.00
2024-02-19T15:41:50.565Z,50.10
2024-02-19T15:44:19.317Z,50.60
2024-02-19T15:46:48.069Z,51.30
2024-02-19T15:49:18.631Z,51.10
2024-02-19T15:51:47.405Z,51.20
2024-02-19T15:54:16.140Z,51.30
2024-02-19T15:56:44.845Z,51.50
2024-02-19T15:59:13.525Z,51.60
2024-02-19T16:01:42.318Z,51.80
2024-02-19T16:04:11.128Z,51.90
2024-02-19T16:06:41.301Z,52.10
2024-02-19T16:09:12.314Z,52.30
2024-02-19T16:11:41.436Z,52.60
2024-02-19T16:14:10.403Z,52.80
2024-02-19T16:16:39.947Z,53.00
2024-02-19T16:19:08.516Z,53.10
2024-02-19T16:21:37.156Z,53.30
2024-02-19T16:24:08.306Z,53.50
2024-02-19T16:26:37.111Z,53.70
2024-02-19T16:29:05.917Z,53.80
2024-02-19T16:31:34.954Z,53.90
2024-02-19T16:34:03.893Z,54.10
2024-02-19T16:36:32.725Z,54.80
2024-02-19T16:39:01.479Z,54.50
2024-02-19T16:41:31.730Z,54.70
2024-02-19T16:44:00.460Z,54.80
2024-02-19T16:46:29.851Z,55.30
2024-02-19T16:48:58.740Z,55.70
2024-02-19T16:51:27.958Z,56.10
2024-02-19T16:53:58.291Z,56.30
2024-02-19T16:56:28.531Z,56.30
2024-02-19T16:58:59.245Z,56.40
2024-02-19T17:01:30.157Z,56.70
2024-02-19T17:03:59.040Z,57.00
2024-02-19T17:06:27.976Z,56.90
2024-02-19T17:08:56.696Z,57.20
2024-02-19T17:11:25.618Z,57.60
2024-02-19T17:13:54.536Z,57.60
2024-02-19T17:16:24.609Z,57.60
2024-02-19T17:18:53.343Z,57.90
2024-02-19T17:21:22.055Z,57.80
2024-02-19T17:23:50.746Z,58.10
2024-02-19T17:26:19.641Z,58.40
2024-02-19T17:28:48.333Z,58.40
2024-02-19T17:31:17.033Z,58.30
2024-02-19T17:33:48.347Z,58.30
2024-02-19T17:36:17.071Z,58.30
2024-02-19T17:38:45.545Z,58.60
2024-02-19T17:41:14.178Z,58.90
2024-02-19T17:43:45.497Z,59.00
2024-02-19T17:46:16.911Z,59.00
2024-02-19T17:48:48.726Z,59.00
2024-02-19T17:51:20.586Z,59.00
2024-02-19T17:53:49.662Z,59.00
2024-02-19T17:56:19.796Z,59.10
2024-02-19T17:58:54.839Z,59.20
2024-02-19T18:01:27.019Z,59.40
2024-02-19T18:03:57.751Z,59.70
2024-02-19T18:06:26.482Z,59.70
2024-02-19T18:08:55.879Z,59.90
2024-02-19T18:11:26.122Z,59.80
2024-02-19T18:13:56.643Z,59.90
2024-02-19T18:16:25.778Z,60.10
2024-02-19T18:18:54.581Z,60.10
2024-02-19T18:21:24.754Z,60.20
2024-02-19T18:23:55.486Z,60.30
2024-02-19T18:26:25.632Z,60.50
2024-02-19T18:28:56.162Z,60.60
2024-02-19T18:31:25.141Z,60.60
2024-02-19T18:33:53.997Z,60.80
2024-02-19T18:36:24.544Z,60.80
2024-02-19T18:38:53.309Z,60.80
2024-02-19T18:41:22.021Z,61.60
2024-02-19T18:43:50.663Z,62.20
2024-02-19T18:46:19.499Z,61.90
2024-02-19T18:48:48.352Z,61.80
2024-02-19T18:51:17.165Z,61.90
2024-02-19T18:53:47.378Z,61.80
2024-02-19T18:56:16.231Z,62.00
2024-02-19T18:58:45.051Z,63.10
2024-02-19T19:01:13.883Z,63.20
2024-02-19T19:03:42.961Z,63.50
2024-02-19T19:06:11.962Z,63.30
2024-02-19T19:08:40.592Z,63.20
2024-02-19T19:11:13.985Z,63.10
2024-02-19T19:13:43.190Z,63.90
2024-02-19T19:16:12.039Z,63.80
2024-02-19T19:18:41.265Z,63.80
2024-02-19T19:21:10.105Z,63.50
2024-02-19T19:23:42.748Z,63.50
2024-02-19T19:26:15.108Z,63.20
2024-02-19T19:28:44.111Z,63.20
2024-02-19T19:31:13.541Z,63.20
2024-02-19T19:33:42.283Z,63.90
2024-02-19T19:36:11.032Z,64.10
2024-02-19T19:38:39.731Z,64.30
2024-02-19T19:41:10.312Z,64.00
2024-02-19T19:43:41.532Z,64.20
2024-02-19T19:46:12.271Z,64.30
2024-02-19T19:48:41.046Z,64.10
2024-02-19T19:51:09.684Z,64.00
2024-02-19T19:53:39.308Z,64.00
2024-02-19T19:56:10.691Z,64.10
2024-02-19T19:58:41.248Z,64.20
2024-02-19T20:01:11.393Z,64.30
2024-02-19T20:03:40.342Z,64.20
2024-02-19T20:06:09.095Z,65.00
2024-02-19T20:08:37.661Z,64.90
2024-02-19T20:11:06.577Z,64.80
2024-02-19T20:13:35.269Z,65.00
2024-02-19T20:16:05.774Z,64.90
2024-02-19T20:18:36.863Z,65.20
2024-02-19T20:21:05.848Z,65.30
2024-02-19T20:23:39.957Z,65.20
2024-02-19T20:26:08.789Z,65.60
2024-02-19T20:28:39.435Z,66.30
2024-02-19T20:31:09.562Z,66.30
2024-02-19T20:33:38.916Z,66.60
2024-02-19T20:36:08.164Z,66.20
2024-02-19T20:38:36.826Z,66.20
2024-02-19T20:41:05.696Z,66.60
2024-02-19T20:43:34.340Z,66.40
2024-02-19T20:46:03.124Z,66.30
2024-02-19T20:48:33.227Z,66.40
2024-02-19T20:51:01.886Z,66.40
2024-02-19T20:53:30.525Z,66.30
2024-02-19T20:55:59.045Z,66.30
2024-02-19T20:58:27.768Z,66.60
2024-02-19T21:00:57.060Z,66.40
2024-02-19T21:03:32.463Z,66.40
2024-02-19T21:06:09.935Z,67.30
2024-02-19T21:08:38.779Z,67.00
2024-02-19T21:11:09.235Z,66.70
2024-02-19T21:13:39.040Z,66.60
2024-02-19T21:16:10.284Z,66.50
2024-02-19T21:18:46.730Z,66.40
2024-02-19T21:21:29.415Z,66.40
2024-02-19T21:24:03.267Z,67.20
2024-02-19T21:26:32.304Z,67.50
2024-02-19T21:29:01.158Z,67.60
2024-02-19T21:31:29.822Z,67.30
2024-02-19T21:33:58.867Z,67.30
2024-02-19T21:36:31.918Z,67.60
2024-02-19T21:39:00.594Z,67.70
2024-02-19T21:41:29.724Z,67.70
2024-02-19T21:43:58.508Z,67.80
2024-02-19T21:46:27.524Z,67.60
2024-02-19T21:48:57.338Z,67.60
2024-02-19T21:51:26.307Z,67.60
2024-02-19T21:53:56.427Z,67.60
2024-02-19T21:56:25.208Z,67.60
2024-02-19T21:58:53.648Z,67.70
2024-02-19T22:01:22.757Z,67.80
2024-02-19T22:03:52.208Z,68.20
2024-02-19T22:06:21.105Z,68.20
2024-02-19T22:08:50.004Z,67.90
2024-02-19T22:11:21.018Z,67.80
2024-02-19T22:13:50.866Z,67.80
2024-02-19T22:16:19.637Z,67.90
2024-02-19T22:18:48.481Z,67.90
2024-02-19T22:21:17.234Z,67.90
2024-02-19T22:23:46.936Z,67.90
2024-02-19T22:26:15.468Z,67.90
2024-02-19T22:28:45.464Z,68.00
2024-02-19T22:31:14.110Z,68.00
2024-02-19T22:33:42.672Z,67.90
2024-02-19T22:36:11.290Z,68.00
2024-02-19T22:38:40.367Z,68.10
2024-02-19T22:41:09.568Z,68.10
2024-02-19T22:43:38.257Z,68.30
2024-02-19T22:46:08.333Z,68.10
2024-02-19T22:48:37.004Z,68.30
2024-02-19T22:51:05.920Z,68.20
2024-02-19T22:53:34.565Z,68.30
2024-02-19T22:56:03.172Z,68.20
2024-02-19T22:58:34.821Z,68.30
2024-02-19T23:01:05.583Z,68.30
2024-02-19T23:03:35.874Z,68.30
2024-02-19T23:06:04.908Z,68.20
2024-02-19T23:08:33.653Z,69.00
2024-02-19T23:11:02.408Z,68.00
2024-02-19T23:13:31.096Z,68.00
2024-02-19T23:15:59.832Z,68.00
2024-02-19T23:18:28.413Z,68.00
2024-02-19T23:20:58.685Z,68.30
2024-02-19T23:23:27.437Z,68.10
2024-02-19T23:25:56.321Z,68.40
2024-02-19T23:28:25.003Z,68.70
2024-02-19T23:30:54.518Z,68.80
2024-02-19T23:33:24.033Z,68.70
2024-02-19T23:35:52.741Z,68.70
2024-02-19T23:38:23.681Z,69.00
2024-02-19T23:40:52.473Z,69.10
2024-02-19T23:43:22.046Z,69.10
2024-02-19T23:45:50.815Z,69.00
2024-02-19T23:48:19.694Z,69.00
2024-02-19T23:50:48.554Z,69.00
2024-02-19T23:53:17.370Z,69.10
2024-02-19T23:55:47.552Z,69.30
2024-02-19T23:58:16.450Z,69.40
